Time;durP1;ratioP1;P1;durP2;ratioP2;P2;SDS_P1;SDS_P2;PMS_P1;PMS_P2;Temp;Humidity;BMP_temperature;BMP_pressure;BME280_temperature;BME280_humidity;BME280_pressure;Samples;Min_cycle;Max_cycle;Signal;HPM_P1;HPM_P2
2023/12/07 00:01:11;;;;;;;16.88;10.40;;;2.60;99.90;;;;;;5073001;28;20373;-48
2023/12/07 00:03:37;;;;;;;16.35;10.48;;;2.50;99.90;;;;;;5072940;28;20051;-49
2023/12/07 00:06:02;;;;;;;18.08;10.60;;;2.60;99.90;;;;;;5072878;28;20481;-47
2023/12/07 00:08:28;;;;;;;17.98;10.43;;;2.60;99.90;;;;;;5072534;28;20047;-50
2023/12/07 00:10:54;;;;;;;18.15;10.40;;;2.70;99.90;;;;;;5072792;28;20036;-47
2023/12/07 00:13:19;;;;;;;17.23;10.70;;;2.70;99.90;;;;;;5072511;28;20499;-47
2023/12/07 00:15:45;;;;;;;16.23;9.73;;;2.60;99.90;;;;;;5072523;28;20111;-48
2023/12/07 00:18:11;;;;;;;15.43;10.18;;;2.60;99.90;;;;;;5072360;28;20052;-46
2023/12/07 00:20:36;;;;;;;16.27;9.98;;;2.50;99.90;;;;;;5072506;28;20042;-50
2023/12/07 00:23:02;;;;;;;18.75;10.38;;;2.60;99.90;;;;;;5072331;28;20051;-49
2023/12/07 00:25:28;;;;;;;15.38;9.88;;;2.50;99.90;;;;;;5072343;28;20040;-50
2023/12/07 00:27:53;;;;;;;15.82;10.18;;;2.60;99.90;;;;;;5072092;28;20037;-46
2023/12/07 00:30:19;;;;;;;16.67;10.02;;;2.70;99.90;;;;;;5071921;28;20056;-46
2023/12/07 00:32:46;;;;;;;14.90;10.13;;;2.60;99.90;;;;;;5072207;28;20059;-49
2023/12/07 00:35:11;;;;;;;16.13;9.98;;;2.60;99.90;;;;;;5072317;28;20072;-47
2023/12/07 00:37:37;;;;;;;16.73;10.90;;;2.60;99.90;;;;;;5072323;28;20110;-47
2023/12/07 00:40:04;;;;;;;16.63;10.18;;;2.60;99.90;;;;;;5072356;28;20045;-47
2023/12/07 00:42:30;;;;;;;17.98;11.13;;;2.60;99.90;;;;;;5072260;28;20071;-47
2023/12/07 00:44:56;;;;;;;16.00;10.20;;;2.60;99.90;;;;;;5070981;28;20415;-46
2023/12/07 00:47:22;;;;;;;15.35;10.60;;;2.60;99.90;;;;;;5072102;28;20040;-51
2023/12/07 00:49:48;;;;;;;17.75;10.25;;;2.50;99.90;;;;;;5071756;28;20051;-46
2023/12/07 00:52:13;;;;;;;18.27;9.57;;;2.50;99.90;;;;;;5071829;28;20040;-46
2023/12/07 00:54:39;;;;;;;16.38;9.85;;;2.50;99.90;;;;;;5072121;28;20469;-49
2023/12/07 00:57:06;;;;;;;16.33;10.00;;;2.60;99.90;;;;;;5072034;28;20488;-49
2023/12/07 00:59:33;;;;;;;17.20;10.70;;;2.50;99.90;;;;;;5071895;28;20143;-47
2023/12/07 01:02:06;;;;;;;19.83;11.20;;;2.50;99.90;;;;;;5071979;28;20063;-47
2023/12/07 01:04:32;;;;;;;19.77;11.65;;;2.50;99.90;;;;;;5071895;28;20036;-49
2023/12/07 01:06:58;;;;;;;17.15;11.05;;;2.60;99.90;;;;;;5071859;28;20043;-47
2023/12/07 01:09:24;;;;;;;19.05;11.52;;;2.50;99.90;;;;;;5072369;28;20032;-49
2023/12/07 01:11:50;;;;;;;15.63;10.50;;;2.50;99.90;;;;;;5076028;28;20458;-46
2023/12/07 01:14:17;;;;;;;16.30;9.85;;;2.60;99.90;;;;;;5076039;28;20079;-47
2023/12/07 01:16:43;;;;;;;15.23;9.05;;;2.40;99.90;;;;;;5076226;28;20036;-46
2023/12/07 01:19:09;;;;;;;14.32;8.77;;;2.40;99.90;;;;;;5075813;28;20529;-46
2023/12/07 01:21:35;;;;;;;16.67;9.38;;;2.40;99.90;;;;;;5075996;28;20040;-46
2023/12/07 01:24:01;;;;;;;17.08;9.15;;;2.40;99.90;;;;;;5076002;28;20040;-47
2023/12/07 01:26:26;;;;;;;16.98;8.88;;;2.40;99.90;;;;;;5075889;28;20511;-50
2023/12/07 01:28:52;;;;;;;14.82;8.95;;;2.40;99.90;;;;;;5075367;28;20501;-49
2023/12/07 01:31:18;;;;;;;15.38;9.10;;;2.40;99.90;;;;;;5074402;28;20036;-50
2023/12/07 01:33:44;;;;;;;17.48;9.50;;;2.50;99.90;;;;;;5075269;28;20036;-51
2023/12/07 01:36:11;;;;;;;14.95;9.20;;;2.50;99.90;;;;;;5075769;28;20377;-47
2023/12/07 01:38:37;;;;;;;14.77;9.25;;;2.40;99.90;;;;;;5075669;28;20052;-47
2023/12/07 01:41:02;;;;;;;16.48;9.65;;;2.40;99.90;;;;;;5075516;28;20044;-47
2023/12/07 01:43:28;;;;;;;13.25;8.75;;;2.40;99.90;;;;;;5073992;28;20045;-47
2023/12/07 01:45:56;;;;;;;16.17;9.43;;;2.30;99.90;;;;;;5075249;28;20559;-49
2023/12/07 01:48:24;;;;;;;17.27;10.48;;;2.30;99.90;;;;;;5075229;28;20432;-46
2023/12/07 01:50:51;;;;;;;14.90;8.82;;;2.30;99.90;;;;;;5075248;28;20323;-48
2023/12/07 01:53:17;;;;;;;15.95;10.30;;;2.30;99.90;;;;;;5075466;28;20112;-46
2023/12/07 01:55:43;;;;;;;15.07;9.85;;;2.30;99.90;;;;;;5075458;28;20443;-47
2023/12/07 01:58:10;;;;;;;15.60;9.43;;;2.20;99.90;;;;;;5075016;28;20524;-48
2023/12/07 02:00:35;;;;;;;17.20;9.65;;;2.40;99.90;;;;;;5075287;28;20075;-46
2023/12/07 02:03:04;;;;;;;15.40;10.52;;;2.30;99.90;;;;;;5075163;28;20504;-47
2023/12/07 02:05:31;;;;;;;16.35;10.18;;;2.30;99.90;;;;;;5074823;28;20555;-48
2023/12/07 02:07:58;;;;;;;20.23;9.70;;;2.30;99.90;;;;;;5075061;28;20424;-50
2023/12/07 02:10:24;;;;;;;14.85;9.90;;;2.40;99.90;;;;;;5075077;28;20048;-50
2023/12/07 02:12:51;;;;;;;15.80;10.07;;;2.30;99.90;;;;;;5074924;28;20045;-47
2023/12/07 02:15:19;;;;;;;17.08;9.00;;;2.30;99.90;;;;;;5074846;28;20114;-47
2023/12/07 02:17:47;;;;;;;16.45;9.73;;;2.20;99.90;;;;;;5074686;28;20039;-46
2023/12/07 02:20:36;;;;;;;16.08;9.40;;;2.30;99.90;;;;;;5074746;28;20051;-50
2023/12/07 02:23:06;;;;;;;18.48;9.68;;;2.10;99.90;;;;;;5074691;28;20074;-50
2023/12/07 02:25:54;;;;;;;18.77;9.45;;;2.20;99.90;;;;;;5074461;28;20516;-47
2023/12/07 02:28:20;;;;;;;14.20;9.20;;;2.20;99.90;;;;;;5074599;28;20578;-50
2023/12/07 02:30:46;;;;;;;15.38;9.20;;;2.20;99.90;;;;;;5074657;28;20097;-46
2023/12/07 02:33:12;;;;;;;16.10;9.50;;;2.30;99.90;;;;;;5074575;28;20041;-46
2023/12/07 02:35:38;;;;;;;13.30;8.80;;;2.20;99.90;;;;;;5074745;28;20101;-45
2023/12/07 02:38:06;;;;;;;17.55;9.35;;;2.30;99.90;;;;;;5074544;28;20032;-46
2023/12/07 02:40:32;;;;;;;16.75;9.73;;;2.30;99.90;;;;;;5074319;28;20487;-47
2023/12/07 02:43:00;;;;;;;18.88;9.27;;;2.30;99.90;;;;;;5073059;28;20048;-47
2023/12/07 02:45:28;;;;;;;15.80;9.82;;;2.20;99.90;;;;;;5073265;28;20101;-47
2023/12/07 02:47:54;;;;;;;14.20;9.07;;;2.30;99.90;;;;;;5074152;28;20040;-47
2023/12/07 02:50:19;;;;;;;15.85;8.77;;;2.30;99.90;;;;;;5074335;28;20710;-47
2023/12/07 02:52:45;;;;;;;16.08;8.63;;;2.30;99.90;;;;;;5073972;28;20037;-48
2023/12/07 02:55:11;;;;;;;18.95;8.85;;;2.30;99.90;;;;;;5074396;28;20025;-46
2023/12/07 02:57:37;;;;;;;14.52;9.15;;;2.30;99.90;;;;;;5074119;28;20119;-49
2023/12/07 03:00:06;;;;;;;15.18;8.85;;;2.30;99.90;;;;;;5074105;28;20123;-47
2023/12/07 03:02:34;;;;;;;14.25;8.98;;;2.20;99.90;;;;;;5074078;28;20075;-47
2023/12/07 03:05:00;;;;;;;13.52;8.77;;;2.20;99.90;;;;;;5073893;28;20041;-46
2023/12/07 03:07:26;;;;;;;15.95;8.65;;;2.30;99.90;;;;;;5072737;28;20094;-45
2023/12/07 03:09:51;;;;;;;15.63;8.60;;;2.30;99.90;;;;;;5073853;28;20033;-47
2023/12/07 03:12:17;;;;;;;14.00;8.40;;;2.20;99.90;;;;;;5073824;28;20381;-47
2023/12/07 03:14:43;;;;;;;12.77;8.85;;;2.30;99.90;;;;;;5073699;28;20459;-48
2023/12/07 03:17:08;;;;;;;13.00;8.35;;;2.20;99.90;;;;;;5073586;28;20364;-48
2023/12/07 03:19:38;;;;;;;13.68;8.57;;;2.30;99.90;;;;;;5073778;28;20072;-50
2023/12/07 03:22:06;;;;;;;15.27;8.65;;;2.20;99.90;;;;;;5073336;28;20048;-50
2023/12/07 03:24:32;;;;;;;13.68;8.43;;;2.20;99.90;;;;;;5073786;28;20054;-50
2023/12/07 03:26:58;;;;;;;17.25;8.88;;;2.20;99.90;;;;;;5073352;28;20107;-47
2023/12/07 03:29:23;;;;;;;16.25;8.05;;;2.30;99.90;;;;;;5073311;28;20060;-47
2023/12/07 03:31:49;;;;;;;13.43;8.90;;;2.30;99.90;;;;;;5073442;28;20637;-48
2023/12/07 03:34:15;;;;;;;12.73;8.35;;;2.30;99.90;;;;;;5072888;28;20106;-47
2023/12/07 03:36:45;;;;;;;14.20;8.35;;;2.30;99.90;;;;;;5072197;28;20393;-50
2023/12/07 03:39:10;;;;;;;12.88;8.10;;;2.40;99.90;;;;;;5073174;28;20040;-49
2023/12/07 03:41:36;;;;;;;12.20;7.55;;;2.30;99.90;;;;;;5071907;28;20087;-46
2023/12/07 03:44:01;;;;;;;14.07;8.43;;;2.30;99.90;;;;;;5073310;28;20036;-48
2023/12/07 03:46:27;;;;;;;14.10;8.02;;;2.30;99.90;;;;;;5073085;28;20037;-47
2023/12/07 03:48:53;;;;;;;13.02;8.25;;;2.40;99.90;;;;;;5072939;28;20075;-50
2023/12/07 03:51:18;;;;;;;13.43;8.38;;;2.30;99.90;;;;;;5072818;28;20087;-50
2023/12/07 03:53:44;;;;;;;13.02;8.05;;;2.30;99.90;;;;;;5073111;28;20066;-47
2023/12/07 03:56:10;;;;;;;13.65;8.35;;;2.30;99.90;;;;;;5073009;28;20040;-48
2023/12/07 03:58:36;;;;;;;14.85;8.45;;;2.40;99.90;;;;;;5073257;28;20050;-48
2023/12/07 04:01:01;;;;;;;14.15;8.55;;;2.30;99.90;;;;;;5072798;28;20385;-50
2023/12/07 04:03:27;;;;;;;13.00;8.32;;;2.40;99.90;;;;;;5072754;28;20041;-51
2023/12/07 04:05:52;;;;;;;14.63;9.07;;;2.30;99.90;;;;;;5072933;28;20040;-46
2023/12/07 04:08:18;;;;;;;14.55;8.73;;;2.30;99.90;;;;;;5072701;28;20071;-46
2023/12/07 04:10:44;;;;;;;13.52;9.07;;;2.30;99.90;;;;;;5072408;28;20037;-46
2023/12/07 04:13:09;;;;;;;12.52;8.15;;;2.30;99.90;;;;;;5072665;28;20120;-46
2023/12/07 04:15:35;;;;;;;16.05;8.43;;;2.40;99.90;;;;;;5072609;28;20102;-47
2023/12/07 04:18:01;;;;;;;12.50;7.30;;;2.30;99.90;;;;;;5072631;28;20037;-47
2023/12/07 04:20:26;;;;;;;12.60;7.80;;;2.30;99.90;;;;;;5072247;28;20048;-50
2023/12/07 04:22:52;;;;;;;14.70;8.32;;;2.40;99.90;;;;;;5072607;28;20591;-46
2023/12/07 04:25:18;;;;;;;15.90;8.05;;;2.30;99.90;;;;;;5072378;28;20076;-49
2023/12/07 04:27:44;;;;;;;12.60;8.15;;;2.30;99.90;;;;;;5072828;28;20125;-48
2023/12/07 04:30:10;;;;;;;12.98;7.97;;;2.30;99.90;;;;;;5072088;28;20523;-50
2023/12/07 04:32:35;;;;;;;13.00;7.88;;;2.30;99.90;;;;;;5072572;28;20040;-48
2023/12/07 04:35:01;;;;;;;13.52;7.78;;;2.30;99.90;;;;;;5072493;28;20472;-49
2023/12/07 04:37:27;;;;;;;11.13;7.30;;;2.20;99.90;;;;;;5072567;28;20113;-45
2023/12/07 04:39:52;;;;;;;14.18;7.40;;;2.30;99.90;;;;;;5072401;28;20438;-47
2023/12/07 04:42:18;;;;;;;12.07;7.40;;;2.20;99.90;;;;;;5072537;28;20520;-50
2023/12/07 04:44:44;;;;;;;13.02;7.35;;;2.30;99.90;;;;;;5070188;28;20040;-47
2023/12/07 04:47:09;;;;;;;13.40;7.55;;;2.20;99.90;;;;;;5072257;28;20411;-51
2023/12/07 04:49:35;;;;;;;12.35;6.72;;;2.30;99.90;;;;;;5072039;28;20489;-48
2023/12/07 04:52:01;;;;;;;12.30;7.20;;;2.30;99.90;;;;;;5071953;28;20048;-46
2023/12/07 04:54:27;;;;;;;11.10;7.38;;;2.20;99.90;;;;;;5054038;28;20037;-50
2023/12/07 04:56:54;;;;;;;12.05;6.85;;;2.30;99.90;;;;;;5072108;28;20472;-51
2023/12/07 04:59:19;;;;;;;11.45;6.80;;;2.20;99.90;;;;;;5072270;28;20037;-49
2023/12/07 05:01:46;;;;;;;11.32;6.90;;;2.30;99.90;;;;;;5072182;28;20123;-47
2023/12/07 05:04:12;;;;;;;12.55;7.20;;;2.20;99.90;;;;;;5071820;28;20083;-47
2023/12/07 05:06:37;;;;;;;14.38;7.25;;;2.20;99.90;;;;;;5072100;28;20068;-50
2023/12/07 05:09:03;;;;;;;11.50;7.03;;;2.20;99.90;;;;;;5072050;28;20068;-48
2023/12/07 05:11:29;;;;;;;14.10;7.50;;;2.20;99.90;;;;;;5071673;28;20040;-46
2023/12/07 05:13:55;;;;;;;11.40;7.32;;;2.20;99.90;;;;;;5071879;28;20041;-49
2023/12/07 05:16:20;;;;;;;12.75;7.85;;;2.10;99.90;;;;;;5053569;28;20139;-47
2023/12/07 05:18:46;;;;;;;12.05;7.18;;;2.10;99.90;;;;;;5071603;28;20066;-48
2023/12/07 05:21:12;;;;;;;12.48;7.63;;;2.00;99.90;;;;;;5072002;28;20052;-48
2023/12/07 05:23:37;;;;;;;12.80;7.90;;;2.00;99.90;;;;;;5071862;28;20527;-47
2023/12/07 05:26:04;;;;;;;13.07;8.27;;;2.10;99.90;;;;;;5071629;28;20385;-47
2023/12/07 05:28:29;;;;;;;13.68;8.05;;;2.10;99.90;;;;;;5070266;28;20069;-46
2023/12/07 05:30:57;;;;;;;13.18;8.48;;;2.00;99.90;;;;;;5071432;28;20548;-48
2023/12/07 05:33:22;;;;;;;15.80;8.82;;;2.00;99.90;;;;;;5071492;28;20033;-49
2023/12/07 05:35:48;;;;;;;13.88;8.80;;;1.90;99.90;;;;;;5071840;28;20527;-46
2023/12/07 05:38:14;;;;;;;14.40;8.38;;;1.90;99.90;;;;;;5070310;28;20059;-47
2023/12/07 05:40:39;;;;;;;19.13;9.90;;;2.00;99.90;;;;;;5071834;28;20045;-49
2023/12/07 05:43:08;;;;;;;15.48;8.95;;;1.90;99.90;;;;;;5070142;28;20063;-49
2023/12/07 05:45:33;;;;;;;15.27;9.10;;;1.90;99.90;;;;;;5071453;28;20090;-46
2023/12/07 05:47:59;;;;;;;24.23;10.05;;;1.80;99.90;;;;;;5071433;28;20044;-46
2023/12/07 05:50:25;;;;;;;14.73;7.70;;;1.80;99.90;;;;;;5071225;28;20045;-47
2023/12/07 05:52:50;;;;;;;14.93;8.80;;;1.80;99.90;;;;;;5071259;28;20064;-46
2023/12/07 05:55:16;;;;;;;16.50;8.02;;;1.80;99.90;;;;;;5071728;28;20455;-46
2023/12/07 05:57:44;;;;;;;14.25;7.93;;;1.90;99.90;;;;;;5075061;28;20400;-47
2023/12/07 06:00:10;;;;;;;13.93;8.63;;;1.80;99.90;;;;;;5074934;28;20044;-46
2023/12/07 06:02:36;;;;;;;15.25;8.65;;;1.80;99.90;;;;;;5075211;28;20044;-51
2023/12/07 06:05:05;;;;;;;16.02;8.70;;;1.80;99.90;;;;;;5074915;28;20476;-46
2023/12/07 06:07:31;;;;;;;16.10;8.45;;;1.70;99.90;;;;;;5075208;28;20040;-50
2023/12/07 06:09:57;;;;;;;15.82;8.50;;;1.80;99.90;;;;;;5074915;28;20045;-49
2023/12/07 06:12:22;;;;;;;14.73;8.52;;;1.80;99.90;;;;;;5073594;28;20550;-50
2023/12/07 06:14:49;;;;;;;16.52;8.82;;;1.80;99.90;;;;;;5074871;28;20036;-50
2023/12/07 06:17:15;;;;;;;16.58;8.45;;;1.80;99.90;;;;;;5074649;28;20036;-46
2023/12/07 06:19:41;;;;;;;14.80;8.50;;;1.80;99.90;;;;;;5074945;28;20102;-47
2023/12/07 06:22:08;;;;;;;14.73;8.38;;;1.80;99.90;;;;;;5074724;28;20048;-50
2023/12/07 06:24:35;;;;;;;19.65;9.45;;;1.70;99.90;;;;;;5074851;28;20396;-50
2023/12/07 06:27:01;;;;;;;15.00;8.73;;;1.80;99.90;;;;;;5074584;28;20045;-48
2023/12/07 06:29:27;;;;;;;15.48;8.75;;;1.80;99.90;;;;;;5074355;28;20087;-47
2023/12/07 06:31:53;;;;;;;13.63;7.68;;;1.90;99.90;;;;;;5074412;28;20441;-49
2023/12/07 06:34:19;;;;;;;15.60;8.25;;;1.90;99.90;;;;;;5073190;28;20040;-46
2023/12/07 06:36:45;;;;;;;14.50;8.18;;;2.00;99.90;;;;;;5074373;28;20481;-48
2023/12/07 06:39:11;;;;;;;14.60;8.45;;;1.90;99.90;;;;;;5074541;28;20040;-46
2023/12/07 06:41:36;;;;;;;15.18;8.60;;;2.00;99.90;;;;;;5073188;28;20060;-46
2023/12/07 06:44:02;;;;;;;17.25;9.32;;;1.90;99.90;;;;;;5074283;28;20485;-46
2023/12/07 06:46:28;;;;;;;16.40;9.35;;;1.90;99.90;;;;;;5074072;28;20079;-49
2023/12/07 06:48:54;;;;;;;16.02;8.93;;;1.90;99.90;;;;;;5074111;28;20052;-48
2023/12/07 06:51:20;;;;;;;16.23;8.90;;;1.90;99.90;;;;;;5074311;28;20060;-47
2023/12/07 06:53:45;;;;;;;15.35;8.88;;;1.90;99.90;;;;;;5072789;28;20041;-50
2023/12/07 06:56:11;;;;;;;17.67;9.98;;;1.90;99.90;;;;;;5073956;28;20040;-50
2023/12/07 06:58:37;;;;;;;17.23;9.65;;;1.90;99.90;;;;;;5073996;28;20045;-46
2023/12/07 07:01:02;;;;;;;16.13;8.98;;;2.00;99.90;;;;;;5072902;28;20468;-50
2023/12/07 07:03:28;;;;;;;17.95;9.65;;;2.00;99.90;;;;;;5073808;28;20044;-49
2023/12/07 07:05:55;;;;;;;18.50;9.32;;;2.00;99.90;;;;;;5074065;28;20399;-50
2023/12/07 07:08:20;;;;;;;19.95;9.15;;;2.10;99.90;;;;;;5072804;28;20049;-47
2023/12/07 07:10:49;;;;;;;15.50;8.75;;;2.10;99.90;;;;;;5073817;28;20040;-45
2023/12/07 07:13:20;;;;;;;16.60;8.90;;;2.00;99.90;;;;;;5073682;28;20068;-47
2023/12/07 07:15:46;;;;;;;14.90;8.30;;;2.00;99.90;;;;;;5073476;28;20575;-46
2023/12/07 07:18:12;;;;;;;15.00;8.10;;;2.00;99.90;;;;;;5073836;28;20079;-49
2023/12/07 07:20:37;;;;;;;14.98;8.43;;;2.00;99.90;;;;;;5073518;28;20071;-46
2023/12/07 07:23:03;;;;;;;17.50;8.90;;;2.00;99.90;;;;;;5074046;28;20072;-47
2023/12/07 07:25:29;;;;;;;16.90;7.97;;;1.90;99.90;;;;;;5073688;28;20047;-46
2023/12/07 07:27:54;;;;;;;16.13;7.22;;;2.00;99.90;;;;;;5073603;28;20070;-46
2023/12/07 07:30:21;;;;;;;15.10;8.10;;;2.00;99.90;;;;;;5072877;28;20048;-50
2023/12/07 07:32:47;;;;;;;13.82;7.53;;;2.00;99.90;;;;;;5072931;28;20045;-50
2023/12/07 07:35:13;;;;;;;15.88;7.97;;;2.10;99.90;;;;;;5072871;28;20041;-45
2023/12/07 07:37:39;;;;;;;18.23;8.40;;;2.00;99.90;;;;;;5071975;28;20090;-46
2023/12/07 07:40:06;;;;;;;14.35;7.60;;;2.10;99.90;;;;;;5073408;28;20044;-46
2023/12/07 07:42:35;;;;;;;14.77;8.00;;;2.10;99.90;;;;;;5072982;28;20036;-46
2023/12/07 07:45:01;;;;;;;15.90;8.07;;;2.10;99.90;;;;;;5072843;28;20068;-46
2023/12/07 07:47:26;;;;;;;14.75;7.90;;;2.10;99.90;;;;;;5072747;28;20065;-46
2023/12/07 07:49:52;;;;;;;13.48;8.10;;;2.10;99.90;;;;;;5072951;28;20048;-46
2023/12/07 07:52:19;;;;;;;14.65;7.22;;;2.10;99.90;;;;;;5073025;28;20036;-47
2023/12/07 07:54:44;;;;;;;15.63;7.68;;;2.20;99.90;;;;;;5072572;28;20077;-46
2023/12/07 07:57:10;;;;;;;15.32;8.18;;;2.10;99.90;;;;;;5071212;28;20075;-47
2023/12/07 07:59:36;;;;;;;17.35;7.15;;;2.10;99.90;;;;;;5072670;28;20051;-46
2023/12/07 08:02:02;;;;;;;15.05;8.38;;;2.20;99.90;;;;;;5072866;28;20090;-46
2023/12/07 08:04:28;;;;;;;15.32;8.30;;;2.20;99.90;;;;;;5072774;28;20397;-48
2023/12/07 08:06:53;;;;;;;16.50;7.97;;;2.20;99.90;;;;;;5072951;28;20043;-47
2023/12/07 08:09:19;;;;;;;14.63;8.30;;;2.20;99.90;;;;;;5072607;28;20075;-46
2023/12/07 08:11:45;;;;;;;15.88;7.68;;;2.10;99.90;;;;;;5072540;28;20048;-48
2023/12/07 08:14:10;;;;;;;15.75;8.30;;;2.20;99.90;;;;;;5072832;28;20033;-46
2023/12/07 08:16:36;;;;;;;15.43;8.35;;;2.30;99.90;;;;;;5072836;28;20110;-46
2023/12/07 08:19:02;;;;;;;15.43;7.78;;;2.40;99.90;;;;;;5072518;28;20036;-47
2023/12/07 08:21:29;;;;;;;16.73;7.43;;;2.30;99.90;;;;;;5072792;28;20119;-46
2023/12/07 08:23:55;;;;;;;16.83;8.65;;;2.40;99.90;;;;;;5072702;28;20119;-49
2023/12/07 08:26:21;;;;;;;15.02;7.95;;;2.40;99.90;;;;;;5072477;28;20170;-47
2023/12/07 08:28:47;;;;;;;14.07;7.40;;;2.40;99.90;;;;;;5072373;28;20083;-46
2023/12/07 08:31:12;;;;;;;16.17;7.43;;;2.40;99.90;;;;;;5072340;28;20413;-47
2023/12/07 08:33:39;;;;;;;15.80;7.50;;;2.30;99.90;;;;;;5072543;28;20029;-50
2023/12/07 08:36:05;;;;;;;15.45;7.63;;;2.30;99.90;;;;;;5072499;28;20070;-50
2023/12/07 08:38:32;;;;;;;17.00;8.23;;;2.40;99.90;;;;;;5072181;28;20119;-48
2023/12/07 08:40:58;;;;;;;21.95;8.85;;;2.40;99.90;;;;;;5072133;28;20119;-50
2023/12/07 08:43:24;;;;;;;16.98;9.48;;;2.40;99.90;;;;;;5072149;28;20072;-46
2023/12/07 08:45:52;;;;;;;16.30;8.88;;;2.30;99.90;;;;;;5072186;28;20048;-50
2023/12/07 08:48:19;;;;;;;19.90;8.45;;;2.30;99.90;;;;;;5072207;28;20040;-47
2023/12/07 08:50:45;;;;;;;19.95;9.43;;;2.30;99.90;;;;;;5072244;28;20061;-48
2023/12/07 08:53:10;;;;;;;20.00;9.70;;;2.30;99.90;;;;;;5070855;28;20049;-50
2023/12/07 08:55:36;;;;;;;21.92;10.35;;;2.40;99.90;;;;;;5071954;28;20502;-48
2023/12/07 08:58:04;;;;;;;21.63;10.40;;;2.40;99.90;;;;;;5071962;28;20388;-48
2023/12/07 09:00:34;;;;;;;20.27;9.38;;;2.40;99.90;;;;;;5072053;28;20643;-48
2023/12/07 09:02:59;;;;;;;18.02;9.52;;;2.40;99.90;;;;;;5071844;28;20548;-47
2023/12/07 09:05:26;;;;;;;19.38;9.15;;;2.50;99.90;;;;;;5072011;28;20119;-46
2023/12/07 09:07:55;;;;;;;21.48;10.07;;;2.50;99.90;;;;;;5072074;28;20040;-46
2023/12/07 09:10:20;;;;;;;20.88;10.15;;;2.40;99.90;;;;;;5071954;28;20053;-47
2023/12/07 09:12:46;;;;;;;20.90;9.95;;;2.50;99.90;;;;;;5071964;28;20039;-46
2023/12/07 09:15:12;;;;;;;21.38;10.20;;;2.50;99.90;;;;;;5071927;28;20559;-48
2023/12/07 09:17:41;;;;;;;19.83;9.93;;;2.50;99.90;;;;;;5071722;28;20037;-47
2023/12/07 09:20:14;;;;;;;21.02;9.95;;;2.50;99.90;;;;;;5071844;28;20485;-46
2023/12/07 09:23:15;;;;;;;19.42;9.95;;;2.50;99.90;;;;;;5071720;28;20501;-46
2023/12/07 09:25:42;;;;;;;18.70;9.20;;;2.40;99.90;;;;;;5049077;28;20471;-47
2023/12/07 09:28:08;;;;;;;22.33;10.38;;;2.50;99.90;;;;;;5066942;28;20129;-50
2023/12/07 09:30:34;;;;;;;20.13;10.48;;;2.50;99.90;;;;;;5072273;28;20044;-47
2023/12/07 09:33:02;;;;;;;20.30;10.40;;;2.50;99.90;;;;;;5075821;28;20044;-46
2023/12/07 09:35:28;;;;;;;21.27;9.82;;;2.40;99.90;;;;;;5075723;28;20123;-46
2023/12/07 09:37:54;;;;;;;18.83;10.10;;;2.50;99.90;;;;;;5075810;28;20115;-46
2023/12/07 09:40:22;;;;;;;22.90;11.32;;;2.40;99.90;;;;;;5075532;28;20446;-47
2023/12/07 09:42:49;;;;;;;22.42;11.27;;;2.50;99.90;;;;;;5075513;28;20393;-46
2023/12/07 09:45:17;;;;;;;22.42;11.27;;;2.40;99.90;;;;;;5075329;28;20063;-49
2023/12/07 09:47:43;;;;;;;23.70;13.15;;;2.40;99.90;;;;;;5073858;28;20098;-46
2023/12/07 09:50:09;;;;;;;25.38;13.18;;;2.40;99.90;;;;;;5075378;28;20043;-46
2023/12/07 09:52:35;;;;;;;24.80;14.02;;;2.50;99.90;;;;;;5073875;28;20081;-46
2023/12/07 09:55:03;;;;;;;28.73;14.45;;;2.50;99.90;;;;;;5075425;28;20045;-50
2023/12/07 09:57:29;;;;;;;27.70;14.60;;;2.50;99.90;;;;;;5075515;28;20202;-49
2023/12/07 09:59:55;;;;;;;27.27;14.15;;;2.50;99.90;;;;;;5075118;28;20064;-46
2023/12/07 10:02:22;;;;;;;23.58;13.38;;;2.50;99.90;;;;;;5075137;28;20131;-47
2023/12/07 10:04:48;;;;;;;28.52;15.07;;;2.50;99.90;;;;;;5075266;28;20040;-46
2023/12/07 10:07:14;;;;;;;25.40;13.98;;;2.50;99.90;;;;;;5075135;28;20086;-47
2023/12/07 10:09:41;;;;;;;30.02;15.55;;;2.50;99.90;;;;;;5074979;28;20488;-47
2023/12/07 10:12:06;;;;;;;31.05;15.27;;;2.50;99.90;;;;;;5075051;28;20127;-47
2023/12/07 10:14:33;;;;;;;28.17;15.63;;;2.50;99.90;;;;;;5074820;28;20144;-46
2023/12/07 10:16:59;;;;;;;28.20;15.00;;;2.60;99.90;;;;;;5074981;28;20033;-46
2023/12/07 10:19:27;;;;;;;25.30;14.35;;;2.60;99.90;;;;;;5074859;28;20086;-46
2023/12/07 10:21:53;;;;;;;24.58;14.65;;;2.60;99.90;;;;;;5074527;28;20044;-47
2023/12/07 10:24:25;;;;;;;26.75;14.55;;;2.60;99.90;;;;;;5074462;28;20051;-47
2023/12/07 10:26:52;;;;;;;27.10;14.77;;;2.70;99.90;;;;;;5074335;28;20135;-49
2023/12/07 10:29:23;;;;;;;24.25;13.05;;;2.70;99.90;;;;;;5074452;28;20127;-49
2023/12/07 10:31:49;;;;;;;27.52;15.02;;;2.80;99.90;;;;;;5074762;28;20044;-50
2023/12/07 10:34:19;;;;;;;24.55;13.68;;;2.70;99.90;;;;;;5074911;28;20439;-49
2023/12/07 10:36:47;;;;;;;24.83;13.93;;;2.80;99.90;;;;;;5074643;28;20400;-50
2023/12/07 10:39:12;;;;;;;23.15;12.75;;;2.80;99.90;;;;;;5074347;28;20072;-46
2023/12/07 10:41:42;;;;;;;27.50;14.02;;;2.80;99.90;;;;;;5073887;28;20083;-50
2023/12/07 10:44:13;;;;;;;25.38;13.93;;;2.90;99.90;;;;;;5073932;28;20044;-49
2023/12/07 10:46:41;;;;;;;26.35;13.68;;;3.00;99.90;;;;;;5074388;28;20044;-46
2023/12/07 10:49:10;;;;;;;25.08;13.40;;;3.00;99.90;;;;;;5074325;28;20362;-50
2023/12/07 10:51:51;;;;;;;24.55;13.13;;;3.10;99.90;;;;;;5074371;28;20044;-47
2023/12/07 10:54:21;;;;;;;26.33;11.88;;;3.10;99.90;;;;;;5074296;28;20076;-50
2023/12/07 10:56:50;;;;;;;22.27;12.15;;;3.10;99.90;;;;;;5074324;28;20475;-48
2023/12/07 10:59:16;;;;;;;22.17;11.82;;;3.20;99.90;;;;;;5074091;28;20107;-47
2023/12/07 11:01:43;;;;;;;21.92;13.15;;;3.20;99.90;;;;;;5074124;28;20122;-46
2023/12/07 11:04:13;;;;;;;24.50;13.05;;;3.20;99.90;;;;;;5073984;28;20040;-47
2023/12/07 11:06:48;;;;;;;20.70;12.07;;;3.30;99.90;;;;;;5073837;28;20396;-46
2023/12/07 11:09:21;;;;;;;22.27;11.68;;;3.30;99.90;;;;;;5074096;28;20119;-45
2023/12/07 11:12:06;;;;;;;22.77;12.77;;;3.30;99.90;;;;;;5073785;28;20049;-48
2023/12/07 11:14:33;;;;;;;21.05;10.32;;;3.50;99.90;;;;;;5073719;28;20461;-47
2023/12/07 11:16:59;;;;;;;21.02;10.82;;;3.50;99.90;;;;;;5073766;28;20043;-46
2023/12/07 11:19:35;;;;;;;22.23;11.77;;;3.60;99.90;;;;;;5073847;28;20259;-46
2023/12/07 11:22:07;;;;;;;20.60;12.02;;;3.50;99.90;;;;;;5073868;28;20051;-47
2023/12/07 11:24:32;;;;;;;20.20;11.40;;;3.60;99.90;;;;;;5073687;28;20049;-46
2023/12/07 11:26:59;;;;;;;21.98;11.20;;;3.70;99.90;;;;;;5073584;28;20047;-47
2023/12/07 11:29:25;;;;;;;19.05;10.18;;;3.70;99.90;;;;;;5073279;28;20068;-45
2023/12/07 11:31:56;;;;;;;17.92;10.32;;;3.70;99.90;;;;;;5073132;28;20485;-46
2023/12/07 11:34:39;;;;;;;19.73;10.50;;;3.80;99.90;;;;;;5073576;28;20037;-48
2023/12/07 11:37:07;;;;;;;21.65;10.63;;;3.80;99.90;;;;;;5073588;28;20102;-48
2023/12/07 11:39:52;;;;;;;18.77;10.10;;;3.80;99.90;;;;;;5072099;28;20056;-46
2023/12/07 11:42:19;;;;;;;20.30;10.93;;;3.80;99.90;;;;;;5073185;28;20048;-47
2023/12/07 11:44:51;;;;;;;19.40;11.15;;;3.80;99.90;;;;;;5073403;28;20044;-50
2023/12/07 11:47:18;;;;;;;21.55;11.30;;;3.80;99.90;;;;;;5073197;28;20115;-46
2023/12/07 11:49:44;;;;;;;20.42;10.65;;;3.80;99.90;;;;;;5073032;28;20040;-47
2023/12/07 11:52:20;;;;;;;19.63;10.15;;;3.80;99.90;;;;;;5072985;28;20109;-48
2023/12/07 11:54:50;;;;;;;21.35;10.52;;;3.80;99.90;;;;;;5072534;28;20041;-46
2023/12/07 11:57:17;;;;;;;21.13;10.40;;;3.80;99.90;;;;;;5073111;28;20117;-45
2023/12/07 11:59:47;;;;;;;21.70;11.95;;;3.80;99.90;;;;;;5073324;28;20068;-47
2023/12/07 12:02:13;;;;;;;21.65;12.05;;;3.80;99.90;;;;;;5072951;28;20044;-48
2023/12/07 12:04:43;;;;;;;23.30;11.93;;;3.80;99.90;;;;;;5072770;28;20385;-46
2023/12/07 12:07:09;;;;;;;22.20;12.10;;;3.90;99.90;;;;;;5072730;28;20068;-45
2023/12/07 12:09:34;;;;;;;24.52;14.30;;;3.80;99.90;;;;;;5072869;28;20040;-46
2023/12/07 12:12:01;;;;;;;21.83;13.00;;;3.80;99.90;;;;;;5072817;28;20040;-50
2023/12/07 12:14:28;;;;;;;25.10;12.98;;;3.90;99.90;;;;;;5071454;28;20036;-48
2023/12/07 12:16:55;;;;;;;28.90;14.32;;;3.90;99.90;;;;;;5071406;28;20040;-47
2023/12/07 12:19:22;;;;;;;29.67;15.32;;;3.90;99.90;;;;;;5071400;28;20036;-47
2023/12/07 12:21:48;;;;;;;28.30;15.57;;;3.80;99.90;;;;;;5072521;28;20059;-51
2023/12/07 12:24:14;;;;;;;28.15;14.68;;;3.90;99.90;;;;;;5072634;28;20481;-46
2023/12/07 12:26:41;;;;;;;26.90;15.27;;;3.90;99.90;;;;;;5072357;28;20412;-47
2023/12/07 12:29:11;;;;;;;26.27;14.10;;;3.90;99.90;;;;;;5072312;28;20354;-46
2023/12/07 12:31:37;;;;;;;23.50;14.10;;;3.90;99.90;;;;;;5072451;28;20040;-47
2023/12/07 12:34:12;;;;;;;25.85;14.82;;;3.90;99.90;;;;;;5072352;28;20484;-50
2023/12/07 12:36:38;;;;;;;31.27;15.68;;;3.90;99.90;;;;;;5072446;28;20047;-48
2023/12/07 12:39:08;;;;;;;26.48;15.00;;;3.80;99.90;;;;;;5072400;28;20040;-49
2023/12/07 12:41:34;;;;;;;25.58;14.35;;;3.80;99.90;;;;;;5071298;28;20397;-47